createdAt,value
2022-09-02T00:01:29.719Z,102138.44
2022-09-02T00:04:01.624Z,102144.53
2022-09-02T00:06:31.334Z,102146.00
2022-09-02T00:09:00.262Z,102147.34
2022-09-02T00:11:30.880Z,102138.44
2022-09-02T00:13:59.685Z,102136.97
2022-09-02T00:16:27.657Z,102135.44
2022-09-02T00:18:56.510Z,102139.84
2022-09-02T00:21:26.942Z,102134.81
2022-09-02T00:23:55.048Z,102137.13
2022-09-02T00:26:23.344Z,102134.53
2022-09-02T00:28:56.280Z,102128.38
2022-09-02T00:31:25.676Z,102139.72
2022-09-02T00:33:53.671Z,102134.59
2022-09-02T00:36:22.275Z,102129.63
2022-09-02T00:38:51.875Z,102124.41
2022-09-02T00:41:24.207Z,102129.13
2022-09-02T00:43:55.428Z,102129.72
2022-09-02T00:46:25.618Z,102132.13
2022-09-02T00:48:59.552Z,102141.06
2022-09-02T00:51:30.274Z,102138.84
2022-09-02T00:53:59.688Z,102135.63
2022-09-02T00:56:30.565Z,102138.50
2022-09-02T00:58:59.167Z,102144.56
2022-09-02T01:01:28.139Z,102143.97
2022-09-02T01:03:56.590Z,102140.16
2022-09-02T01:06:28.670Z,102136.13
2022-09-02T01:09:02.748Z,102127.94
2022-09-02T01:11:39.029Z,102132.72
2022-09-02T01:14:07.697Z,102128.41
2022-09-02T01:16:42.269Z,102129.75
2022-09-02T01:19:17.939Z,102127.03
2022-09-02T01:21:49.134Z,102125.50
2022-09-02T01:24:18.626Z,102127.22
2022-09-02T01:26:46.531Z,102123.19
2022-09-02T01:29:16.473Z,102119.81
2022-09-02T01:31:44.685Z,102121.00
2022-09-02T01:34:13.020Z,102122.56
2022-09-02T01:36:42.526Z,102117.88
2022-09-02T01:39:13.632Z,102117.97
2022-09-02T01:41:42.078Z,102120.47
2022-09-02T01:44:11.369Z,102117.69
2022-09-02T01:46:39.649Z,102114.66
2022-09-02T01:49:07.615Z,102115.72
2022-09-02T01:51:35.881Z,102119.34
2022-09-02T01:54:04.512Z,102110.50
2022-09-02T01:56:33.829Z,102111.13
2022-09-02T01:59:02.587Z,102109.66
2022-09-02T02:01:30.690Z,102106.88
2022-09-02T02:03:58.677Z,102107.41
2022-09-02T02:06:26.573Z,102104.38
2022-09-02T02:08:55.627Z,102103.34
2022-09-02T02:11:25.779Z,102103.34
2022-09-02T02:13:55.076Z,102100.41
2022-09-02T02:16:23.015Z,102106.38
2022-09-02T02:18:50.946Z,102103.50
2022-09-02T02:21:18.879Z,102104.63
2022-09-02T02:23:48.820Z,102102.03
2022-09-02T02:26:16.807Z,102098.22
2022-09-02T02:28:44.776Z,102104.47
2022-09-02T02:31:14.285Z,102094.19
2022-09-02T02:33:42.287Z,102091.19
2022-09-02T02:36:10.792Z,102101.69
2022-09-02T02:38:39.785Z,102096.28
2022-09-02T02:41:07.913Z,102097.63
2022-09-02T02:43:36.512Z,102101.34
2022-09-02T02:46:05.353Z,102095.41
2022-09-02T02:48:34.912Z,102083.78
2022-09-02T02:51:03.968Z,102090.63
2022-09-02T02:53:32.366Z,102095.47
2022-09-02T02:56:00.655Z,102092.13
2022-09-02T02:58:28.623Z,102084.47
2022-09-02T03:00:57.107Z,102086.91
2022-09-02T03:03:25.225Z,102095.19
2022-09-02T03:05:55.901Z,102091.16
2022-09-02T03:08:25.910Z,102079.91
2022-09-02T03:10:56.469Z,102086.03
2022-09-02T03:13:25.484Z,102086.81
2022-09-02T03:15:54.901Z,102078.25
2022-09-02T03:18:23.039Z,102078.34
2022-09-02T03:20:51.251Z,102072.09
2022-09-02T03:23:20.740Z,102075.47
2022-09-02T03:25:48.791Z,102075.75
2022-09-02T03:28:17.474Z,102077.56
2022-09-02T03:30:47.312Z,102074.88
2022-09-02T03:33:15.529Z,102073.22
2022-09-02T03:35:46.003Z,102074.19
2022-09-02T03:38:14.406Z,102073.13
2022-09-02T03:40:44.311Z,102074.97
2022-09-02T03:43:12.373Z,102075.03
2022-09-02T03:45:41.760Z,102074.34
2022-09-02T03:48:12.364Z,102073.41
2022-09-02T03:50:42.621Z,102068.44
2022-09-02T03:53:18.198Z,102065.19
2022-09-02T03:55:52.778Z,102065.84
2022-09-02T03:58:22.879Z,102074.09
2022-09-02T04:00:52.806Z,102070.63
2022-09-02T04:03:21.785Z,102065.00
2022-09-02T04:05:50.770Z,102068.47
2022-09-02T04:08:19.238Z,102070.28
2022-09-02T04:10:47.244Z,102068.47
2022-09-02T04:13:16.751Z,102067.00
2022-09-02T04:15:48.393Z,102062.25
2022-09-02T04:18:17.522Z,102064.06
2022-09-02T04:20:45.833Z,102062.06
2022-09-02T04:23:13.868Z,102062.31
2022-09-02T04:25:42.957Z,102056.94
2022-09-02T04:28:13.184Z,102055.03
2022-09-02T04:30:43.694Z,102058.16
2022-09-02T04:33:11.735Z,102056.47
2022-09-02T04:35:41.465Z,102060.25
2022-09-02T04:38:10.109Z,102068.41
2022-09-02T04:40:41.835Z,102068.31
2022-09-02T04:43:09.993Z,102064.66
2022-09-02T04:45:42.512Z,102065.53
2022-09-02T04:48:10.965Z,102065.72
2022-09-02T04:50:41.097Z,102074.19
2022-09-02T04:53:09.472Z,102065.53
2022-09-02T04:55:40.844Z,102068.13
2022-09-02T04:58:08.953Z,102070.91
2022-09-02T05:00:39.169Z,102070.91
2022-09-02T05:03:08.543Z,102072.69
2022-09-02T05:05:39.198Z,102073.66
2022-09-02T05:08:07.630Z,102075.94
2022-09-02T05:10:35.604Z,102084.13
2022-09-02T05:13:04.196Z,102077.28
2022-09-02T05:15:32.355Z,102080.59
2022-09-02T05:18:00.441Z,102082.81
2022-09-02T05:20:29.700Z,102072.81
2022-09-02T05:22:57.783Z,102077.47
2022-09-02T05:25:25.754Z,102075.84
2022-09-02T05:27:53.656Z,102080.78
2022-09-02T05:30:21.588Z,102081.81
2022-09-02T05:32:50.173Z,102082.66
2022-09-02T05:35:19.031Z,102077.72
2022-09-02T05:37:48.377Z,102084.66
2022-09-02T05:40:16.346Z,102087.09
2022-09-02T05:42:50.566Z,102082.59
2022-09-02T05:45:19.411Z,102089.16
2022-09-02T05:47:47.309Z,102088.03
2022-09-02T05:50:16.551Z,102078.66
2022-09-02T05:52:44.562Z,102079.09
2022-09-02T05:55:13.973Z,102082.91
2022-09-02T05:57:43.320Z,102080.75
2022-09-02T06:00:18.114Z,102084.72
2022-09-02T06:02:46.555Z,102088.09
2022-09-02T06:05:14.618Z,102079.00
2022-09-02T06:07:42.523Z,102079.78
2022-09-02T06:10:10.424Z,102079.31
2022-09-02T06:12:42.670Z,102078.78
2022-09-02T06:15:12.452Z,102083.38
2022-09-02T06:17:40.590Z,102081.75
2022-09-02T06:20:10.017Z,102077.56
2022-09-02T06:22:39.712Z,102074.44
2022-09-02T06:25:08.277Z,102083.53
2022-09-02T06:27:36.788Z,102080.69
2022-09-02T06:30:07.126Z,102073.38
2022-09-02T06:32:35.115Z,102078.50
2022-09-02T06:35:03.001Z,102072.66
2022-09-02T06:37:30.972Z,102076.44
2022-09-02T06:39:58.919Z,102085.38
2022-09-02T06:42:26.943Z,102077.19
2022-09-02T06:44:54.805Z,102079.13
2022-09-02T06:47:24.204Z,102079.63
2022-09-02T06:49:52.074Z,102076.94
2022-09-02T06:52:20.007Z,102073.94
2022-09-02T06:54:49.208Z,102071.38
2022-09-02T06:57:17.109Z,102067.41
2022-09-02T06:59:45.078Z,102067.63
2022-09-02T07:02:13.126Z,102068.16
2022-09-02T07:05:00.417Z,102069.00
2022-09-02T07:07:28.485Z,102070.03
2022-09-02T07:09:56.696Z,102065.41
2022-09-02T07:12:27.119Z,102063.81
2022-09-02T07:14:55.973Z,102063.44
2022-09-02T07:17:25.462Z,102060.56
2022-09-02T07:19:57.701Z,102058.53
2022-09-02T07:22:25.858Z,102060.59
2022-09-02T07:24:53.796Z,102051.81
2022-09-02T07:27:22.018Z,102050.25
2022-09-02T07:29:50.480Z,102046.19
2022-09-02T07:32:19.305Z,102041.59
2022-09-02T07:34:47.455Z,102040.22
2022-09-02T07:37:16.822Z,102050.78
2022-09-02T07:39:45.324Z,102047.69
2022-09-02T07:42:13.637Z,102038.00
2022-09-02T07:44:41.542Z,102038.53
2022-09-02T07:47:09.739Z,102034.25
2022-09-02T07:52:29.509Z,102029.31
2022-09-02T07:54:57.634Z,102023.69
2022-09-02T07:57:25.720Z,102027.47
2022-09-02T07:59:53.648Z,102035.00
2022-09-02T08:02:21.766Z,102030.69
2022-09-02T08:04:50.050Z,102038.47
2022-09-02T08:07:24.226Z,102034.25
2022-09-02T08:09:54.031Z,102023.84
2022-09-02T08:12:22.645Z,102033.34
2022-09-02T08:14:50.987Z,102024.38
2022-09-02T08:17:19.131Z,102024.75
2022-09-02T08:19:47.119Z,102027.84
2022-09-02T08:22:15.502Z,102034.22
2022-09-02T08:24:43.498Z,102032.13
2022-09-02T08:27:12.915Z,102020.16
2022-09-02T08:29:41.295Z,102014.13
2022-09-02T08:32:09.540Z,102020.16
2022-09-02T08:34:37.472Z,102025.59
2022-09-02T08:37:06.554Z,102022.81
2022-09-02T08:39:34.556Z,102015.56
2022-09-02T08:42:09.212Z,102018.50
2022-09-02T08:44:41.165Z,102016.66
2022-09-02T08:47:14.474Z,102014.44
2022-09-02T08:49:45.375Z,102020.81
2022-09-02T08:52:22.519Z,102012.91
2022-09-02T08:54:55.678Z,102021.41
2022-09-02T08:57:26.823Z,102022.91
2022-09-02T08:59:59.067Z,102019.81
2022-09-02T09:02:36.901Z,102015.66
2022-09-02T09:05:24.249Z,102025.44
2022-09-02T09:08:08.473Z,102007.38
2022-09-02T09:10:48.276Z,102010.06
2022-09-02T09:13:31.439Z,102013.44
2022-09-02T09:16:09.170Z,102003.88
2022-09-02T09:18:40.595Z,101998.75
2022-09-02T09:21:11.015Z,102000.22
2022-09-02T09:23:41.222Z,101999.63
2022-09-02T09:26:12.742Z,102001.34
2022-09-02T09:28:47.182Z,101995.13
2022-09-02T09:31:20.059Z,101990.84
2022-09-02T09:34:01.138Z,101983.25
2022-09-02T09:36:53.637Z,101988.22
2022-09-02T09:39:27.737Z,101983.28
2022-09-02T09:41:57.962Z,101977.03
2022-09-02T09:44:44.760Z,101979.94
2022-09-02T09:47:19.868Z,101984.47
2022-09-02T09:49:50.089Z,101985.50
2022-09-02T09:52:26.352Z,101972.88
2022-09-02T09:55:13.882Z,101977.84
2022-09-02T09:57:44.784Z,101978.84
2022-09-02T10:00:32.215Z,101977.66
2022-09-02T10:03:04.618Z,101967.34
2022-09-02T10:05:35.892Z,101964.72
2022-09-02T10:08:10.125Z,101954.25
2022-09-02T10:10:57.602Z,101957.31
2022-09-02T10:13:27.979Z,101951.56
2022-09-02T10:16:11.529Z,101948.88
2022-09-02T10:18:49.153Z,101943.28
2022-09-02T10:21:29.513Z,101925.94
2022-09-02T10:24:05.531Z,101938.91
2022-09-02T10:26:39.405Z,101933.22
2022-09-02T10:29:31.602Z,101941.09
2022-09-02T10:32:24.359Z,101942.25
2022-09-02T10:35:04.979Z,101920.38
2022-09-02T10:37:41.557Z,101925.13
2022-09-02T10:40:14.153Z,101922.94
2022-09-02T10:42:54.267Z,101922.63
2022-09-02T10:45:31.708Z,101919.38
2022-09-02T10:48:13.975Z,101916.19
2022-09-02T10:50:50.228Z,101915.66
2022-09-02T10:53:32.898Z,101916.44
2022-09-02T10:56:04.888Z,101904.44
2022-09-02T10:58:45.360Z,101912.38
2022-09-02T11:01:21.357Z,101905.69
2022-09-02T11:04:05.028Z,101906.31
2022-09-02T11:07:00.994Z,101911.72
2022-09-02T11:09:34.712Z,101894.50
2022-09-02T11:12:10.704Z,101895.22
2022-09-02T11:14:49.566Z,101887.50
2022-09-02T11:17:23.489Z,101882.97
2022-09-02T11:19:56.991Z,101886.81
2022-09-02T11:22:29.888Z,101887.91
2022-09-02T11:25:04.657Z,101877.66
2022-09-02T11:27:42.561Z,101874.94
2022-09-02T11:30:14.976Z,101890.13
2022-09-02T11:32:48.855Z,101880.97
2022-09-02T11:35:21.847Z,101876.06
2022-09-02T11:37:56.161Z,101872.19
2022-09-02T11:40:36.727Z,101885.66
2022-09-02T11:43:27.964Z,101868.38
2022-09-02T11:46:21.032Z,101875.19
2022-09-02T11:49:22.443Z,101869.69
2022-09-02T11:52:04.635Z,101866.09
2022-09-02T11:54:39.661Z,101869.03
2022-09-02T11:57:11.988Z,101858.53
2022-09-02T12:00:09.768Z,101867.53
2022-09-02T12:02:43.975Z,101858.25
2022-09-02T12:05:50.025Z,101853.72
2022-09-02T12:09:01.042Z,101845.34
2022-09-02T12:11:55.202Z,101850.63
2022-09-02T12:15:08.925Z,101848.84
2022-09-02T12:17:45.535Z,101846.81
2022-09-02T12:20:52.273Z,101846.97
2022-09-02T12:23:57.291Z,101847.19
2022-09-02T12:26:27.260Z,101832.81
2022-09-02T12:29:14.282Z,101837.38
2022-09-02T12:31:44.217Z,101833.44
2022-09-02T12:34:54.341Z,101834.22
2022-09-02T12:37:53.777Z,101830.09
2022-09-02T12:40:38.589Z,101823.78
2022-09-02T12:43:21.143Z,101825.16
2022-09-02T12:45:51.797Z,101829.63
2022-09-02T12:48:37.898Z,101820.59
2022-09-02T12:51:06.814Z,101820.56
2022-09-02T12:53:38.494Z,101822.06
2022-09-02T12:56:17.400Z,101819.09
2022-09-02T12:58:48.833Z,101818.31
2022-09-02T13:01:26.271Z,101812.94
2022-09-02T13:04:16.787Z,101807.09
2022-09-02T13:07:04.299Z,101815.34
2022-09-02T13:10:02.627Z,101810.81
2022-09-02T13:13:03.157Z,101805.53
2022-09-02T13:15:58.045Z,101807.16
2022-09-02T13:19:03.381Z,101803.94
2022-09-02T13:21:51.335Z,101793.44
2022-09-02T13:24:47.059Z,101784.63
2022-09-02T13:27:50.178Z,101796.75
2022-09-02T13:30:22.071Z,101785.31
2022-09-02T13:32:58.540Z,101769.72
2022-09-02T13:35:30.671Z,101769.25
2022-09-02T13:38:01.812Z,101776.72
2022-09-02T13:40:33.579Z,101757.84
2022-09-02T13:43:03.504Z,101761.47
2022-09-02T13:45:34.793Z,101763.91
2022-09-02T13:48:08.388Z,101763.72
2022-09-02T13:50:44.999Z,101759.97
2022-09-02T13:56:14.849Z,101749.38
2022-09-02T13:58:46.156Z,101759.75
2022-09-02T14:01:28.258Z,101743.66
2022-09-02T14:03:59.585Z,101740.94
2022-09-02T14:06:33.255Z,101737.94
2022-09-02T14:09:04.064Z,101733.38
2022-09-02T14:11:39.279Z,101728.59
2022-09-02T14:14:07.840Z,101721.03
2022-09-02T14:16:37.374Z,101719.78
2022-09-02T14:19:10.697Z,101725.78
2022-09-02T14:21:47.274Z,101721.00
2022-09-02T14:24:20.032Z,101720.78
2022-09-02T14:26:49.141Z,101719.63
2022-09-02T14:29:18.959Z,101725.22
2022-09-02T14:31:48.021Z,101726.69
2022-09-02T14:34:36.303Z,101712.25
2022-09-02T14:37:20.077Z,101719.28
2022-09-02T14:40:12.015Z,101719.44
2022-09-02T14:42:55.068Z,101717.38
2022-09-02T14:45:30.717Z,101715.19
2022-09-02T14:48:02.995Z,101719.06
2022-09-02T14:50:36.583Z,101716.34
2022-09-02T14:53:09.216Z,101717.44
2022-09-02T14:55:50.404Z,101715.63
2022-09-02T14:58:18.835Z,101714.94
2022-09-02T15:00:51.335Z,101714.19
2022-09-02T15:03:20.202Z,101712.81
2022-09-02T15:05:48.389Z,101706.09
2022-09-02T15:08:18.327Z,101717.00
2022-09-02T15:10:46.944Z,101713.72
2022-09-02T15:13:19.789Z,101710.59
2022-09-02T15:15:47.831Z,101712.16
2022-09-02T15:18:15.728Z,101709.78
2022-09-02T15:20:43.712Z,101714.31
2022-09-02T15:23:12.061Z,101706.06
2022-09-02T15:25:41.567Z,101701.66
2022-09-02T15:28:09.427Z,101698.19
2022-09-02T15:30:37.459Z,101697.41
2022-09-02T15:33:06.078Z,101698.81
2022-09-02T15:35:35.272Z,101700.66
2022-09-02T15:38:04.282Z,101696.63
2022-09-02T15:40:33.521Z,101682.41
2022-09-02T15:43:02.752Z,101696.06
2022-09-02T15:45:30.950Z,101695.78
2022-09-02T15:47:59.722Z,101692.03
2022-09-02T15:50:28.237Z,101677.50
2022-09-02T15:52:57.100Z,101686.47
2022-09-02T15:55:29.443Z,101689.72
2022-09-02T15:57:57.629Z,101694.94
2022-09-02T16:00:29.944Z,101681.91
2022-09-02T16:03:01.468Z,101685.53
2022-09-02T16:05:30.686Z,101683.94
2022-09-02T16:07:58.786Z,101682.78
2022-09-02T16:10:26.803Z,101682.50
2022-09-02T16:12:54.627Z,101680.16
2022-09-02T16:15:22.717Z,101678.13
2022-09-02T16:17:52.742Z,101683.72
2022-09-02T16:20:22.107Z,101668.88
2022-09-02T16:22:49.987Z,101668.66
2022-09-02T16:25:18.163Z,101674.03
2022-09-02T16:27:55.854Z,101671.50
2022-09-02T16:30:26.474Z,101673.03
2022-09-02T16:32:55.740Z,101660.88
2022-09-02T16:35:23.626Z,101662.72
2022-09-02T16:37:51.582Z,101654.00
2022-09-02T16:40:21.742Z,101659.78
2022-09-02T16:42:49.851Z,101655.03
2022-09-02T16:45:17.943Z,101647.22
2022-09-02T16:47:45.816Z,101656.25
2022-09-02T16:50:15.063Z,101653.88
2022-09-02T16:52:43.659Z,101648.34
2022-09-02T16:55:11.583Z,101647.34
2022-09-02T16:57:39.435Z,101646.41
2022-09-02T17:00:08.574Z,101642.81
2022-09-02T17:02:36.566Z,101655.03
2022-09-02T17:05:04.586Z,101646.44
2022-09-02T17:07:33.981Z,101643.91
2022-09-02T17:10:01.896Z,101650.53
2022-09-02T17:12:29.847Z,101652.00
2022-09-02T17:14:57.796Z,101645.41
2022-09-02T17:17:25.723Z,101646.06
2022-09-02T17:19:53.706Z,101643.88
2022-09-02T17:22:21.705Z,101651.00
2022-09-02T17:24:53.732Z,101640.03
2022-09-02T17:27:22.045Z,101651.63
2022-09-02T17:29:52.519Z,101658.91
2022-09-02T17:32:21.262Z,101649.63
2022-09-02T17:34:50.888Z,101645.50
2022-09-02T17:37:18.824Z,101646.19
2022-09-02T17:39:46.935Z,101654.22
2022-09-02T17:42:15.764Z,101653.66
2022-09-02T17:44:43.805Z,101647.34
2022-09-02T17:47:14.232Z,101652.53
2022-09-02T17:49:44.782Z,101653.66
2022-09-02T17:52:14.672Z,101662.41
2022-09-02T17:54:42.952Z,101656.38
2022-09-02T17:57:29.435Z,101651.25
2022-09-02T18:00:07.592Z,101654.28
2022-09-02T18:03:13.577Z,101654.13
2022-09-02T18:05:55.600Z,101657.84
2022-09-02T18:08:33.804Z,101664.56
2022-09-02T18:11:05.298Z,101657.69
2022-09-02T18:13:45.091Z,101657.66
2022-09-02T18:16:36.898Z,101654.09
2022-09-02T18:19:31.077Z,101654.09
2022-09-02T18:22:10.066Z,101657.53
2022-09-02T18:24:57.679Z,101659.66
2022-09-02T18:27:35.601Z,101669.22
2022-09-02T18:30:08.622Z,101669.09
2022-09-02T18:32:56.018Z,101669.34
2022-09-02T18:35:33.458Z,101670.75
2022-09-02T18:38:10.102Z,101674.22
2022-09-02T18:40:49.028Z,101678.00
2022-09-02T18:43:24.277Z,101675.44
2022-09-02T18:45:58.779Z,101673.81
2022-09-02T18:48:29.792Z,101676.81
2022-09-02T18:50:59.835Z,101684.09
2022-09-02T18:53:31.431Z,101685.50
2022-09-02T18:56:06.075Z,101680.34
2022-09-02T18:58:40.763Z,101688.50
2022-09-02T19:01:16.028Z,101690.91
2022-09-02T19:03:44.075Z,101693.88
2022-09-02T19:06:18.588Z,101697.22
2022-09-02T19:08:47.168Z,101699.34
2022-09-02T19:11:17.959Z,101697.44
2022-09-02T19:13:48.590Z,101701.41
2022-09-02T19:16:19.957Z,101701.41
2022-09-02T19:18:48.388Z,101696.13
2022-09-02T19:21:20.362Z,101692.25
2022-09-02T19:23:49.343Z,101696.06
2022-09-02T19:26:18.344Z,101702.63
2022-09-02T19:28:47.023Z,101701.19
2022-09-02T19:31:21.965Z,101696.72
2022-09-02T19:33:52.944Z,101705.53
2022-09-02T19:36:22.468Z,101709.97
2022-09-02T19:38:50.334Z,101709.22
2022-09-02T19:41:18.256Z,101710.03
2022-09-02T19:43:46.120Z,101719.66
2022-09-02T19:46:33.100Z,101712.13
2022-09-02T19:49:03.239Z,101723.94
2022-09-02T19:51:31.098Z,101719.53
2022-09-02T19:54:00.995Z,101727.84
2022-09-02T19:56:29.090Z,101723.41
2022-09-02T19:58:56.983Z,101732.53
2022-09-02T20:01:24.879Z,101730.03
2022-09-02T20:03:53.069Z,101731.41
2022-09-02T20:06:22.289Z,101728.47
2022-09-02T20:08:50.204Z,101738.69
2022-09-02T20:11:18.332Z,101738.69
2022-09-02T20:13:46.175Z,101735.72
2022-09-02T20:16:17.767Z,101733.28
2022-09-02T20:18:48.362Z,101736.59
2022-09-02T20:21:20.673Z,101737.94
2022-09-02T20:23:50.061Z,101732.69
2022-09-02T20:26:34.406Z,101738.09
2022-09-02T20:29:16.181Z,101733.56
2022-09-02T20:31:57.485Z,101739.06
2022-09-02T20:34:38.480Z,101735.97
2022-09-02T20:37:16.400Z,101743.38
2022-09-02T20:39:57.871Z,101736.03
2022-09-02T20:42:58.973Z,101744.19
2022-09-02T20:45:29.766Z,101738.88
2022-09-02T20:48:10.515Z,101739.41
2022-09-02T20:50:48.746Z,101742.25
2022-09-02T20:53:38.821Z,101746.91
2022-09-02T20:56:19.075Z,101743.09
2022-09-02T20:58:54.198Z,101742.75
2022-09-02T21:01:27.595Z,101744.47
2022-09-02T21:04:02.844Z,101745.72
2022-09-02T21:06:35.193Z,101744.88
2022-09-02T21:09:11.280Z,101740.31
2022-09-02T21:11:48.161Z,101732.84
2022-09-02T21:14:21.244Z,101744.75
2022-09-02T21:16:55.288Z,101744.28
2022-09-02T21:19:30.499Z,101753.13
2022-09-02T21:22:06.637Z,101752.38
2022-09-02T21:24:39.337Z,101752.22
2022-09-02T21:27:14.175Z,101748.31
2022-09-02T21:29:49.918Z,101757.75
2022-09-02T21:32:25.278Z,101763.66
2022-09-02T21:34:58.452Z,101754.44
2022-09-02T21:37:29.535Z,101749.25
2022-09-02T21:40:02.420Z,101761.91
2022-09-02T21:42:43.919Z,101758.75
2022-09-02T21:45:21.435Z,101755.09
2022-09-02T21:47:57.907Z,101755.81
2022-09-02T21:50:35.839Z,101759.38
2022-09-02T21:53:12.628Z,101759.00
2022-09-02T21:55:57.580Z,101757.38
2022-09-02T21:58:54.559Z,101755.53
2022-09-02T22:01:44.452Z,101759.22
2022-09-02T22:04:26.289Z,101752.72
2022-09-02T22:07:00.414Z,101750.00
2022-09-02T22:09:31.341Z,101753.31
2022-09-02T22:12:05.536Z,101754.31
2022-09-02T22:14:48.152Z,101750.88
2022-09-02T22:17:27.199Z,101749.66
2022-09-02T22:19:59.286Z,101753.44
2022-09-02T22:22:30.349Z,101749.88
2022-09-02T22:24:58.618Z,101754.53
2022-09-02T22:27:34.381Z,101745.09
2022-09-02T22:30:08.783Z,101750.47
2022-09-02T22:32:41.280Z,101748.91
2022-09-02T22:35:18.577Z,101746.06
2022-09-02T22:37:53.420Z,101737.59
2022-09-02T22:40:25.649Z,101745.69
2022-09-02T22:42:59.004Z,101740.28
2022-09-02T22:45:52.480Z,101742.59
2022-09-02T22:48:44.730Z,101734.75
2022-09-02T22:51:35.249Z,101732.50
2022-09-02T22:54:03.314Z,101740.94
2022-09-02T22:56:42.243Z,101742.16
2022-09-02T22:59:25.189Z,101738.06
2022-09-02T23:02:08.181Z,101741.84
2022-09-02T23:04:52.473Z,101738.84
2022-09-02T23:07:20.335Z,101735.53
2022-09-02T23:09:53.009Z,101736.84
2022-09-02T23:12:30.182Z,101731.47
2022-09-02T23:15:13.321Z,101730.72
2022-09-02T23:17:57.879Z,101734.41
2022-09-02T23:20:32.823Z,101733.66
2022-09-02T23:23:15.233Z,101736.81
2022-09-02T23:25:53.932Z,101730.53
2022-09-02T23:28:35.367Z,101731.47
2022-09-02T23:31:13.169Z,101733.75
2022-09-02T23:33:51.063Z,101736.25
2022-09-02T23:36:35.072Z,101733.03
2022-09-02T23:39:24.193Z,101721.94
2022-09-02T23:41:53.419Z,101720.97
2022-09-02T23:44:23.001Z,101729.28
2022-09-02T23:47:06.347Z,101721.06
2022-09-02T23:49:42.007Z,101722.06
2022-09-02T23:52:24.643Z,101716.88
2022-09-02T23:55:05.458Z,101715.69
2022-09-02T23:57:56.700Z,101712.88
